Clifton Heights, Pennsylvania
Current Conditions -  °F | °C
As of 5:54 PM on Wednesday 17 Dec 2014 (Local Time) from KPHL Reporting Station
Broken Clouds Broken Clouds  
Wind Chill: 41°   Ceiling: 4500
Heat Index: 47°   Visibility: 10mi
Dew Point: 29°   Wind: 13mph
Humidity: 50%   Direction: 280°W
Pressure: 29.96"   Gusts: NA
Location:  39.93°N, 75.3°W
Report Text: KPHL 172254Z 28011KT 10SM BKN045 08/M02 A2996 RMK AO2 SLP145 T00831017
Loading
Personal Weather Stations






























Interactive Weather Map New forecast layout! Learn more

10-Day Weather Forecast

Advertisements
Track Severe Weather on mobile